Time;durP1;ratioP1;P1;durP2;ratioP2;P2;SDS_P1;SDS_P2;PMS_P1;PMS_P2;Temp;Humidity;BMP_temperature;BMP_pressure;BME280_temperature;BME280_humidity;BME280_pressure;Samples;Min_cycle;Max_cycle;Signal;HPM_P1;HPM_P2
2022/07/21 00:02:06;;;;;;;;;;;21.70;71.10;;;;;;5055681;28;1948;-67
2022/07/21 00:04:31;;;;;;;;;;;21.70;71.10;;;;;;5055375;28;919;-67
2022/07/21 00:06:57;;;;;;;;;;;21.70;71.10;;;;;;5055400;28;788;-67
2022/07/21 00:09:22;;;;;;;;;;;21.70;71.10;;;;;;5055491;28;777;-67
2022/07/21 00:11:48;;;;;;;;;;;21.70;71.10;;;;;;5055322;28;1177;-67
2022/07/21 00:14:13;;;;;;;;;;;21.70;71.10;;;;;;5055113;28;777;-67
2022/07/21 00:16:39;;;;;;;;;;;21.70;71.10;;;;;;5055363;28;835;-67
2022/07/21 00:19:04;;;;;;;;;;;21.70;71.10;;;;;;5055233;28;1174;-68
2022/07/21 00:21:30;;;;;;;;;;;21.70;71.10;;;;;;5054991;28;2331;-67
2022/07/21 00:23:55;;;;;;;;;;;21.70;71.10;;;;;;5037110;28;1014;-67
2022/07/21 00:26:20;;;;;;;;;;;21.70;71.10;;;;;;5037247;28;885;-67
2022/07/21 00:28:46;;;;;;;;;;;21.70;71.10;;;;;;5055256;28;1134;-67
2022/07/21 00:31:12;;;;;;;;;;;21.70;71.10;;;;;;5036942;28;1294;-68
2022/07/21 00:33:37;;;;;;;;;;;21.70;71.10;;;;;;5055021;28;1021;-67
2022/07/21 00:36:02;;;;;;;;;;;21.70;71.10;;;;;;5054693;28;895;-67
2022/07/21 00:38:28;;;;;;;;;;;21.70;71.10;;;;;;5037110;28;946;-67
2022/07/21 00:40:53;;;;;;;;;;;21.70;71.10;;;;;;5054618;28;1961;-67
2022/07/21 00:43:19;;;;;;;;;;;21.70;71.10;;;;;;5055201;28;819;-67
2022/07/21 00:45:44;;;;;;;;;;;21.70;71.20;;;;;;5036724;28;981;-67
2022/07/21 00:48:10;;;;;;;;;;;21.70;71.10;;;;;;5054892;28;1001;-67
2022/07/21 00:50:35;;;;;;;;;;;21.70;71.10;;;;;;5054431;28;1218;-67
2022/07/21 00:53:00;;;;;;;;;;;21.70;71.10;;;;;;5054743;28;871;-67
2022/07/21 00:55:26;;;;;;;;;;;21.70;71.10;;;;;;5054316;28;827;-67
2022/07/21 00:57:52;;;;;;;;;;;21.70;71.10;;;;;;5020424;28;848;-67
2022/07/21 01:00:21;;;;;;;;;;;21.70;71.10;;;;;;5054714;28;2028;-68
2022/07/21 01:02:47;;;;;;;;;;;21.70;71.10;;;;;;5054579;28;856;-68
2022/07/21 01:05:14;;;;;;;;;;;21.70;71.20;;;;;;5053936;28;819;-67
2022/07/21 01:07:43;;;;;;;;;;;21.70;71.10;;;;;;5054363;28;858;-68
2022/07/21 01:10:09;;;;;;;;;;;21.70;71.20;;;;;;5054777;28;1189;-69
2022/07/21 01:12:35;;;;;;;;;;;21.70;71.20;;;;;;5019706;28;1581;-69
2022/07/21 01:15:00;;;;;;;;;;;21.70;71.10;;;;;;5031797;28;1032;-68
2022/07/21 01:17:26;;;;;;;;;;;21.70;71.10;;;;;;5054067;28;1256;-66
2022/07/21 01:19:51;;;;;;;;;;;21.70;71.20;;;;;;5053701;28;1373;-67
2022/07/21 01:22:17;;;;;;;;;;;21.70;71.20;;;;;;5036332;28;1903;-67
2022/07/21 01:24:42;;;;;;;;;;;21.70;71.90;;;;;;5036353;28;800;-68
2022/07/21 01:27:08;;;;;;;;;;;21.70;71.10;;;;;;5054394;28;883;-68
2022/07/21 01:29:33;;;;;;;;;;;21.70;71.20;;;;;;5036343;28;1135;-68
2022/07/21 01:31:59;;;;;;;;;;;21.70;71.20;;;;;;5048741;23;2051;-74
2022/07/21 01:34:24;;;;;;;;;;;21.70;71.10;;;;;;5032080;28;881;-73
2022/07/21 01:36:49;;;;;;;;;;;21.70;71.20;;;;;;5015271;28;1216;-73
2022/07/21 01:41:59;;;;;;;;;;;21.70;71.10;;;;;;5017396;28;1918;-74
2022/07/21 01:44:25;;;;;;;;;;;21.70;71.20;;;;;;5014807;28;969;-74
2022/07/21 01:46:50;;;;;;;;;;;21.70;72.00;;;;;;5015204;28;1313;-74
2022/07/21 01:49:16;;;;;;;;;;;21.70;71.20;;;;;;5015055;28;1421;-73
2022/07/21 01:51:42;;;;;;;;;;;21.70;71.20;;;;;;4998508;28;1200;-74
2022/07/21 01:54:07;;;;;;;;;;;21.70;71.20;;;;;;5032591;28;877;-73
2022/07/21 01:56:33;;;;;;;;;;;21.70;71.20;;;;;;4998599;28;1282;-73
2022/07/21 01:58:59;;;;;;;;;;;21.70;71.20;;;;;;5015280;28;841;-74
2022/07/21 02:01:28;;;;;;;;;;;21.70;71.20;;;;;;4998345;28;1961;-74
2022/07/21 02:03:54;;;;;;;;;;;21.70;71.20;;;;;;5016026;28;850;-73
2022/07/21 02:06:19;;;;;;;;;;;21.70;71.20;;;;;;5033984;28;1214;-74
2022/07/21 02:08:45;;;;;;;;;;;21.70;71.20;;;;;;5015356;28;865;-74
2022/07/21 02:11:11;;;;;;;;;;;21.70;71.20;;;;;;4998590;28;1216;-74
2022/07/21 02:13:36;;;;;;;;;;;21.70;71.20;;;;;;5014549;28;826;-74
2022/07/21 02:16:02;;;;;;;;;;;21.70;71.20;;;;;;4997573;28;1237;-74
2022/07/21 02:18:27;;;;;;;;;;;21.70;71.20;;;;;;5015046;28;850;-74
2022/07/21 02:20:54;;;;;;;;;;;21.70;71.20;;;;;;4995080;28;1906;-74
2022/07/21 02:23:19;;;;;;;;;;;21.70;71.20;;;;;;5012675;28;901;-74
2022/07/21 02:25:45;;;;;;;;;;;21.70;71.20;;;;;;4994630;28;1202;-74
2022/07/21 02:28:10;;;;;;;;;;;21.70;71.20;;;;;;4978546;28;1375;-74
2022/07/21 02:30:36;;;;;;;;;;;21.70;71.20;;;;;;5027229;28;1155;-74
2022/07/21 02:33:01;;;;;;;;;;;21.70;71.30;;;;;;5014912;28;1000;-74
2022/07/21 02:35:27;;;;;;;;;;;21.70;71.20;;;;;;5014293;28;1215;-74
2022/07/21 02:37:52;;;;;;;;;;;21.70;71.20;;;;;;5014540;28;907;-75
2022/07/21 02:40:18;;;;;;;;;;;21.70;71.20;;;;;;5032538;28;1962;-73
2022/07/21 02:42:43;;;;;;;;;;;21.70;71.30;;;;;;5011899;28;1996;-74
2022/07/21 02:45:09;;;;;;;;;;;21.70;71.20;;;;;;5009754;28;1083;-74
2022/07/21 02:48:07;;;;;;;;;;;21.70;71.30;;;;;;5009638;28;1246;-74
2022/07/21 02:50:33;;;;;;;;;;;21.70;71.20;;;;;;4976919;28;1386;-74
2022/07/21 02:52:59;;;;;;;;;;;21.70;71.20;;;;;;5014368;28;838;-74
2022/07/21 02:55:25;;;;;;;;;;;21.70;71.30;;;;;;5030324;28;1204;-74
2022/07/21 02:58:07;;;;;;;;;;;21.70;71.30;;;;;;4997715;28;1241;-74
2022/07/21 03:00:33;;;;;;;;;;;21.70;71.30;;;;;;4997294;28;1958;-74
2022/07/21 03:02:59;;;;;;;;;;;21.70;71.20;;;;;;5014271;28;1033;-75
2022/07/21 03:05:24;;;;;;;;;;;21.70;71.30;;;;;;5031173;28;1694;-74
2022/07/21 03:07:50;;;;;;;;;;;21.70;71.30;;;;;;5031939;28;794;-74
2022/07/21 03:10:15;;;;;;;;;;;21.70;71.30;;;;;;5031065;28;1012;-74
2022/07/21 03:12:41;;;;;;;;;;;21.70;71.20;;;;;;4997554;28;1252;-74
2022/07/21 03:15:06;;;;;;;;;;;21.70;71.30;;;;;;5013719;28;1172;-74
2022/07/21 03:17:32;;;;;;;;;;;21.70;71.30;;;;;;5031766;28;1150;-74
2022/07/21 03:19:57;;;;;;;;;;;21.70;71.30;;;;;;5013846;28;1960;-74
2022/07/21 03:22:23;;;;;;;;;;;21.70;71.30;;;;;;4997913;28;1269;-74
2022/07/21 03:24:50;;;;;;;;;;;21.70;71.30;;;;;;5013901;28;1303;-74
2022/07/21 03:27:16;;;;;;;;;;;21.70;71.30;;;;;;5013832;28;1322;-74
2022/07/21 03:29:42;;;;;;;;;;;21.70;71.30;;;;;;5031846;28;1057;-74
2022/07/21 03:32:07;;;;;;;;;;;21.70;71.30;;;;;;5031479;28;1080;-74
2022/07/21 03:34:33;;;;;;;;;;;21.70;71.30;;;;;;4996868;28;1320;-74
2022/07/21 03:36:58;;;;;;;;;;;21.70;71.30;;;;;;5013792;28;1168;-74
2022/07/21 03:39:23;;;;;;;;;;;21.70;71.30;;;;;;5031236;28;889;-75
2022/07/21 03:41:49;;;;;;;;;;;21.70;71.30;;;;;;5031226;28;1955;-75
2022/07/21 03:44:14;;;;;;;;;;;21.70;71.30;;;;;;5013323;28;834;-76
2022/07/21 03:46:40;;;;;;;;;;;21.70;71.30;;;;;;5013540;28;1233;-75
2022/07/21 03:49:05;;;;;;;;;;;21.70;71.40;;;;;;5013984;28;818;-75
2022/07/21 03:51:31;;;;;;;;;;;21.70;71.30;;;;;;5013617;28;1085;-76
2022/07/21 03:53:59;;;;;;;;;;;21.70;71.40;;;;;;5030982;28;929;-75
2022/07/21 03:56:24;;;;;;;;;;;21.70;71.30;;;;;;5032114;28;1275;-75
2022/07/21 03:58:50;;;;;;;;;;;21.70;71.30;;;;;;5014638;28;1064;-75
2022/07/21 04:01:15;;;;;;;;;;;21.70;71.30;;;;;;5031374;28;1969;-75
2022/07/21 04:03:41;;;;;;;;;;;21.70;71.30;;;;;;4997410;28;1178;-75
2022/07/21 04:06:10;;;;;;;;;;;21.70;71.30;;;;;;5032932;28;1213;-75
2022/07/21 04:08:35;;;;;;;;;;;21.70;71.30;;;;;;5034936;28;833;-76
2022/07/21 04:11:01;;;;;;;;;;;21.70;71.40;;;;;;5035078;28;881;-75
2022/07/21 04:13:27;;;;;;;;;;;21.70;71.40;;;;;;5034888;28;870;-76
2022/07/21 04:15:52;;;;;;;;;;;21.70;71.40;;;;;;5034619;28;1313;-76
2022/07/21 04:18:17;;;;;;;;;;;21.70;71.40;;;;;;5016908;28;1157;-75
2022/07/21 04:20:43;;;;;;;;;;;21.70;71.40;;;;;;5016794;28;1962;-75
2022/07/21 04:23:08;;;;;;;;;;;21.70;71.40;;;;;;5000185;28;1225;-75
2022/07/21 04:25:35;;;;;;;;;;;21.70;71.40;;;;;;5016644;28;1216;-76
2022/07/21 04:28:00;;;;;;;;;;;21.70;72.10;;;;;;5000434;28;1206;-75
2022/07/21 04:30:26;;;;;;;;;;;21.70;71.40;;;;;;5016567;28;1163;-76
2022/07/21 04:32:52;;;;;;;;;;;21.70;71.40;;;;;;5016519;28;1169;-76
2022/07/21 04:35:18;;;;;;;;;;;21.70;71.40;;;;;;5033921;28;1225;-74
2022/07/21 04:37:43;;;;;;;;;;;21.70;71.40;;;;;;4999480;28;1409;-74
2022/07/21 04:40:09;;;;;;;;;;;21.70;71.40;;;;;;5016386;28;1966;-74
2022/07/21 04:42:35;;;;;;;;;;;21.70;71.40;;;;;;5000056;28;1126;-74
2022/07/21 04:45:00;;;;;;;;;;;21.70;71.40;;;;;;5033487;28;1020;-74
2022/07/21 04:47:26;;;;;;;;;;;21.70;71.40;;;;;;5033855;28;1702;-74
2022/07/21 04:49:51;;;;;;;;;;;21.70;71.40;;;;;;5016100;28;1165;-74
2022/07/21 04:52:17;;;;;;;;;;;21.70;71.40;;;;;;4999797;28;1294;-74
2022/07/21 04:54:42;;;;;;;;;;;21.70;71.40;;;;;;5015913;28;1106;-75
2022/07/21 04:57:08;;;;;;;;;;;21.70;72.10;;;;;;5015897;28;1206;-74
2022/07/21 04:59:33;;;;;;;;;;;21.70;71.40;;;;;;5033698;28;848;-75
2022/07/21 05:01:59;;;;;;;;;;;21.70;71.40;;;;;;5016182;28;1958;-75
2022/07/21 05:04:24;;;;;;;;;;;21.70;71.40;;;;;;4999431;28;1188;-75
2022/07/21 05:06:50;;;;;;;;;;;21.70;71.40;;;;;;5022155;28;1227;-77
2022/07/21 05:09:15;;;;;;;;;;;21.70;71.40;;;;;;5004588;28;1164;-77
2022/07/21 05:11:41;;;;;;;;;;;21.70;71.40;;;;;;5035433;28;817;-78
2022/07/21 05:14:06;;;;;;;;;;;21.70;71.40;;;;;;5000117;28;1281;-78
2022/07/21 05:16:31;;;;;;;;;;;21.70;71.40;;;;;;5015731;28;1311;-77
2022/07/21 05:18:57;;;;;;;;;;;21.70;71.40;;;;;;4999075;28;1310;-77
2022/07/21 05:21:22;;;;;;;;;;;21.70;71.40;;;;;;5015795;28;1961;-77
2022/07/21 05:23:48;;;;;;;;;;;21.70;71.40;;;;;;4999288;28;1215;-78
2022/07/21 05:26:13;;;;;;;;;;;21.70;71.40;;;;;;4999562;28;1307;-77
2022/07/21 05:28:39;;;;;;;;;;;21.70;71.40;;;;;;5000422;28;1245;-81
2022/07/21 05:31:04;;;;;;;;;;;21.70;71.40;;;;;;4996142;28;1183;-79
2022/07/21 05:33:30;;;;;;;;;;;21.70;71.40;;;;;;4994553;28;1348;-76
2022/07/21 05:35:55;;;;;;;;;;;21.80;71.50;;;;;;4990558;28;1765;-78
2022/07/21 05:38:21;;;;;;;;;;;21.70;71.40;;;;;;5005047;28;1077;-77
2022/07/21 05:40:47;;;;;;;;;;;21.70;71.40;;;;;;4995483;28;1969;-77
2022/07/21 05:43:12;;;;;;;;;;;21.70;71.40;;;;;;4996507;28;1157;-77
2022/07/21 05:45:38;;;;;;;;;;;21.70;71.50;;;;;;5013547;28;1221;-77
2022/07/21 05:48:03;;;;;;;;;;;21.70;71.50;;;;;;4980031;28;1285;-78
2022/07/21 05:50:29;;;;;;;;;;;21.70;71.40;;;;;;4995700;28;1169;-77
2022/07/21 05:52:54;;;;;;;;;;;21.70;71.50;;;;;;4978962;28;1153;-77
2022/07/21 05:55:20;;;;;;;;;;;21.70;71.40;;;;;;4995110;28;1209;-77
2022/07/21 05:57:45;;;;;;;;;;;21.70;71.50;;;;;;4978887;28;1152;-77
2022/07/21 06:00:11;;;;;;;;;;;21.70;71.50;;;;;;4979066;28;1952;-77
2022/07/21 06:02:36;;;;;;;;;;;21.70;71.50;;;;;;4979036;28;1293;-77
2022/07/21 06:05:02;;;;;;;;;;;21.70;71.50;;;;;;4995032;28;780;-77
2022/07/21 06:07:27;;;;;;;;;;;21.70;71.80;;;;;;4994953;28;1260;-77
2022/07/21 06:09:53;;;;;;;;;;;21.70;71.50;;;;;;5012610;28;914;-78
2022/07/21 06:12:18;;;;;;;;;;;21.70;71.50;;;;;;4978881;28;1170;-77
2022/07/21 06:14:44;;;;;;;;;;;21.70;71.50;;;;;;4994811;28;1288;-79
2022/07/21 06:17:09;;;;;;;;;;;21.70;71.50;;;;;;4978898;28;1249;-78
2022/07/21 06:19:35;;;;;;;;;;;21.70;71.50;;;;;;4995143;28;1172;-79
2022/07/21 06:22:02;;;;;;;;;;;21.70;71.50;;;;;;4994392;28;1894;-78
2022/07/21 06:24:28;;;;;;;;;;;21.70;72.20;;;;;;5011069;28;795;-78
2022/07/21 06:26:55;;;;;;;;;;;21.70;71.50;;;;;;5012956;28;1252;-78
2022/07/21 06:29:21;;;;;;;;;;;21.70;71.50;;;;;;4994786;28;1248;-78
2022/07/21 06:31:47;;;;;;;;;;;21.70;71.50;;;;;;4995179;28;1177;-78
2022/07/21 06:34:12;;;;;;;;;;;21.70;71.50;;;;;;5010930;28;842;-78
2022/07/21 06:36:37;;;;;;;;;;;21.70;71.50;;;;;;4994619;28;1299;-78
2022/07/21 06:39:03;;;;;;;;;;;21.70;71.50;;;;;;4994862;28;1177;-78
2022/07/21 06:41:28;;;;;;;;;;;21.70;71.50;;;;;;4994969;28;1895;-78
2022/07/21 06:43:54;;;;;;;;;;;21.70;71.50;;;;;;4994360;28;1186;-78
2022/07/21 06:46:19;;;;;;;;;;;21.70;71.50;;;;;;4994806;28;1310;-78
2022/07/21 06:48:45;;;;;;;;;;;21.70;71.50;;;;;;4994768;28;1403;-78
2022/07/21 06:51:10;;;;;;;;;;;21.70;71.50;;;;;;4994645;28;1197;-78
2022/07/21 06:53:35;;;;;;;;;;;21.70;71.50;;;;;;4994698;28;1216;-78
2022/07/21 06:56:01;;;;;;;;;;;21.70;71.50;;;;;;5011164;28;1300;-78
2022/07/21 06:58:27;;;;;;;;;;;21.70;71.50;;;;;;5011445;28;996;-78
2022/07/21 07:00:52;;;;;;;;;;;21.80;72.30;;;;;;4994695;28;1954;-78
2022/07/21 07:03:18;;;;;;;;;;;21.80;71.50;;;;;;5010996;28;790;-77
2022/07/21 07:05:43;;;;;;;;;;;21.80;71.60;;;;;;5010444;28;1272;-78
2022/07/21 07:08:09;;;;;;;;;;;21.80;71.50;;;;;;5011450;28;1305;-77
2022/07/21 07:10:34;;;;;;;;;;;21.80;71.60;;;;;;4995138;28;1086;-77
2022/07/21 07:13:01;;;;;;;;;;;21.80;71.50;;;;;;5012460;28;837;-76
2022/07/21 07:15:26;;;;;;;;;;;21.70;71.50;;;;;;5011016;28;1329;-77
2022/07/21 07:17:52;;;;;;;;;;;21.70;71.50;;;;;;4993993;28;1151;-77
2022/07/21 07:20:18;;;;;;;;;;;21.80;71.60;;;;;;4993763;28;1977;-77
2022/07/21 07:22:43;;;;;;;;;;;21.80;72.30;;;;;;5010753;28;778;-77
2022/07/21 07:25:09;;;;;;;;;;;21.70;71.50;;;;;;5010457;28;1028;-77
2022/07/21 07:27:34;;;;;;;;;;;21.80;71.60;;;;;;4994306;28;1334;-77
2022/07/21 07:29:59;;;;;;;;;;;21.70;71.50;;;;;;5020908;28;1243;-77
2022/07/21 07:32:25;;;;;;;;;;;21.80;71.50;;;;;;5023091;23;3840;-69
2022/07/21 07:34:50;;;;;;;;;;;21.80;71.50;;;;;;5032289;28;783;-70
2022/07/21 07:37:16;;;;;;;;;;;21.80;71.60;;;;;;5033009;28;800;-69
2022/07/21 07:39:41;;;;;;;;;;;21.80;71.60;;;;;;5033278;28;965;-69
2022/07/21 07:42:07;;;;;;;;;;;21.70;71.50;;;;;;5036156;28;1981;-67
2022/07/21 07:44:32;;;;;;;;;;;21.70;71.50;;;;;;5035012;28;815;-68
2022/07/21 07:46:58;;;;;;;;;;;21.80;71.60;;;;;;5035145;28;1005;-70
2022/07/21 07:49:23;;;;;;;;;;;21.70;71.50;;;;;;5035196;28;803;-70
2022/07/21 07:51:49;;;;;;;;;;;21.80;71.60;;;;;;5035167;28;1203;-70
2022/07/21 07:54:14;;;;;;;;;;;21.80;71.60;;;;;;5035045;28;970;-69
2022/07/21 07:56:40;;;;;;;;;;;21.80;71.50;;;;;;5035311;28;768;-69
2022/07/21 07:59:06;;;;;;;;;;;21.80;71.50;;;;;;5035064;28;896;-66
2022/07/21 08:01:31;;;;;;;;;;;21.80;71.50;;;;;;5036159;28;1894;-67
2022/07/21 08:03:57;;;;;;;;;;;21.80;71.60;;;;;;5034750;28;1415;-68
2022/07/21 08:06:22;;;;;;;;;;;21.80;71.60;;;;;;5036152;28;768;-68
2022/07/21 08:08:47;;;;;;;;;;;21.80;71.60;;;;;;5036182;28;1001;-69
2022/07/21 08:11:13;;;;;;;;;;;21.80;71.60;;;;;;5036026;28;1226;-67
2022/07/21 08:13:38;;;;;;;;;;;21.80;71.60;;;;;;5035970;28;1026;-68
2022/07/21 08:16:04;;;;;;;;;;;21.80;71.60;;;;;;5034416;28;829;-68
2022/07/21 08:18:29;;;;;;;;;;;21.80;71.60;;;;;;5034542;28;1070;-67
2022/07/21 08:20:55;;;;;;;;;;;21.80;71.60;;;;;;5035434;28;1906;-67
2022/07/21 08:23:20;;;;;;;;;;;21.80;71.60;;;;;;5035994;28;985;-68
2022/07/21 08:25:46;;;;;;;;;;;21.80;71.60;;;;;;5035513;28;1030;-67
2022/07/21 08:28:11;;;;;;;;;;;21.80;71.60;;;;;;5035748;28;843;-67
2022/07/21 08:30:37;;;;;;;;;;;21.80;71.60;;;;;;5035175;28;1284;-67
2022/07/21 08:33:02;;;;;;;;;;;21.70;71.50;;;;;;5017660;28;1750;-67
2022/07/21 08:35:28;;;;;;;;;;;21.80;71.60;;;;;;5034195;28;835;-67
2022/07/21 08:37:58;;;;;;;;;;;21.80;71.60;;;;;;5034358;28;800;-67
2022/07/21 08:40:24;;;;;;;;;;;21.80;71.60;;;;;;5034339;28;1918;-69
2022/07/21 08:42:50;;;;;;;;;;;21.80;71.60;;;;;;5032946;28;2108;-69
2022/07/21 08:45:15;;;;;;;;;;;21.80;71.60;;;;;;5033862;28;1141;-69
2022/07/21 08:47:41;;;;;;;;;;;21.80;71.60;;;;;;5034744;28;1219;-69
2022/07/21 08:50:07;;;;;;;;;;;21.80;71.60;;;;;;5034868;28;1252;-67
2022/07/21 08:52:32;;;;;;;;;;;21.80;71.60;;;;;;5015956;28;1290;-68
2022/07/21 08:54:58;;;;;;;;;;;21.80;71.60;;;;;;5016985;28;829;-68
2022/07/21 08:57:23;;;;;;;;;;;21.80;71.60;;;;;;5017407;28;1161;-68
2022/07/21 08:59:49;;;;;;;;;;;21.70;71.50;;;;;;5035278;28;911;-67
2022/07/21 09:02:30;;;;;;;;;;;21.80;71.60;;;;;;5035031;28;1898;-67
2022/07/21 09:04:56;;;;;;;;;;;21.80;71.60;;;;;;5033509;28;835;-68
2022/07/21 09:07:22;;;;;;;;;;;21.70;71.50;;;;;;5035075;28;899;-67
2022/07/21 09:09:57;;;;;;;;;;;21.80;71.60;;;;;;5033879;28;820;-67
2022/07/21 09:12:23;;;;;;;;;;;21.80;71.50;;;;;;5033548;28;1280;-67
2022/07/21 09:14:49;;;;;;;;;;;21.80;71.60;;;;;;5032953;28;819;-67
2022/07/21 09:17:15;;;;;;;;;;;21.80;71.50;;;;;;5034347;28;831;-67
2022/07/21 09:19:45;;;;;;;;;;;21.80;71.60;;;;;;5033100;28;1135;-67
2022/07/21 09:22:18;;;;;;;;;;;21.80;71.60;;;;;;5014978;28;1974;-67
2022/07/21 09:24:50;;;;;;;;;;;21.80;71.70;;;;;;5024770;28;1231;-66
2022/07/21 09:27:16;;;;;;;;;;;21.70;71.60;;;;;;5022855;28;1227;-70
2022/07/21 09:29:45;;;;;;;;;;;21.80;71.60;;;;;;5025095;28;1297;-67
2022/07/21 09:32:13;;;;;;;;;;;21.80;71.60;;;;;;5024279;28;1287;-67
2022/07/21 09:34:39;;;;;;;;;;;21.80;71.70;;;;;;5022867;28;1232;-67
2022/07/21 09:37:05;;;;;;;;;;;21.70;71.60;;;;;;5012984;28;1059;-66
2022/07/21 09:39:40;;;;;;;;;;;21.80;71.60;;;;;;5014203;28;803;-67
2022/07/21 09:42:19;;;;;;;;;;;21.80;71.60;;;;;;5013990;28;1910;-67
2022/07/21 09:44:49;;;;;;;;;;;21.80;71.70;;;;;;5014283;28;823;-66
2022/07/21 09:47:15;;;;;;;;;;;21.80;71.70;;;;;;5012596;28;1331;-67
2022/07/21 09:49:41;;;;;;;;;;;21.80;71.60;;;;;;5014059;28;922;-66
2022/07/21 09:52:26;;;;;;;;;;;21.80;71.60;;;;;;5013800;28;1215;-67
2022/07/21 09:54:52;;;;;;;;;;;21.80;71.60;;;;;;5013699;28;1014;-67
2022/07/21 09:57:18;;;;;;;;;;;21.80;71.60;;;;;;5013880;28;824;-67
2022/07/21 09:59:44;;;;;;;;;;;21.80;71.70;;;;;;5012694;28;891;-68
2022/07/21 10:02:28;;;;;;;;;;;21.80;71.60;;;;;;5020205;28;1890;-67
2022/07/21 10:04:56;;;;;;;;;;;21.80;71.60;;;;;;5031368;28;894;-67
2022/07/21 10:07:21;;;;;;;;;;;21.80;71.60;;;;;;5031850;28;868;-67
2022/07/21 10:09:47;;;;;;;;;;;21.80;71.60;;;;;;5032709;28;869;-67
2022/07/21 10:12:13;;;;;;;;;;;21.80;71.60;;;;;;5031821;28;1322;-67
2022/07/21 10:14:39;;;;;;;;;;;21.80;71.60;;;;;;5033783;28;823;-67
2022/07/21 10:17:05;;;;;;;;;;;21.80;71.60;;;;;;5031752;28;903;-67
2022/07/21 10:19:36;;;;;;;;;;;21.80;71.60;;;;;;5032030;28;1087;-67
2022/07/21 10:22:17;;;;;;;;;;;21.80;71.60;;;;;;5031846;28;1898;-67
2022/07/21 10:24:43;;;;;;;;;;;21.80;71.60;;;;;;5033016;28;891;-67
2022/07/21 10:27:09;;;;;;;;;;;21.70;71.60;;;;;;5015330;28;1247;-69
2022/07/21 10:29:47;;;;;;;;;;;21.80;71.60;;;;;;5033140;28;1190;-68
2022/07/21 10:32:13;;;;;;;;;;;21.80;71.60;;;;;;5032665;28;1259;-68
2022/07/21 10:34:38;;;;;;;;;;;21.80;71.60;;;;;;5031641;28;803;-70
2022/07/21 10:37:04;;;;;;;;;;;21.80;71.60;;;;;;5026668;28;2161;-69
2022/07/21 10:39:30;;;;;;;;;;;21.80;71.60;;;;;;5033032;28;1025;-69
2022/07/21 10:41:56;;;;;;;;;;;21.80;71.60;;;;;;5015128;28;1962;-68
2022/07/21 10:44:28;;;;;;;;;;;21.80;71.60;;;;;;5010319;28;874;-67
2022/07/21 10:46:59;;;;;;;;;;;21.80;71.60;;;;;;5011845;28;808;-68
2022/07/21 10:49:54;;;;;;;;;;;21.80;71.60;;;;;;5013191;28;866;-67
2022/07/21 10:52:35;;;;;;;;;;;21.70;71.60;;;;;;4999897;28;1210;-67
2022/07/21 10:55:13;;;;;;;;;;;21.80;71.60;;;;;;5012870;28;874;-66
2022/07/21 10:57:39;;;;;;;;;;;21.80;71.60;;;;;;5013485;28;827;-67
2022/07/21 11:00:23;;;;;;;;;;;21.80;71.60;;;;;;5011700;28;1203;-67
2022/07/21 11:02:53;;;;;;;;;;;21.80;71.60;;;;;;5011323;28;1331;-67
2022/07/21 11:05:18;;;;;;;;;;;21.80;71.60;;;;;;5010921;28;797;-68
2022/07/21 11:08:02;;;;;;;;;;;21.80;71.60;;;;;;5012625;28;824;-67
2022/07/21 11:10:28;;;;;;;;;;;21.80;71.60;;;;;;5012503;28;1231;-67
2022/07/21 11:12:56;;;;;;;;;;;21.80;71.60;;;;;;5011352;28;1357;-67
2022/07/21 11:15:40;;;;;;;;;;;21.80;71.50;;;;;;5013079;28;1089;-67
2022/07/21 11:18:06;;;;;;;;;;;21.80;71.60;;;;;;5016545;28;997;-67
2022/07/21 11:20:31;;;;;;;;;;;21.80;71.60;;;;;;5030607;28;1899;-67
2022/07/21 11:23:02;;;;;;;;;;;21.80;71.60;;;;;;5036042;28;978;-67
2022/07/21 11:25:31;;;;;;;;;;;21.70;71.50;;;;;;5035448;28;907;-67
2022/07/21 11:27:56;;;;;;;;;;;21.80;71.60;;;;;;5034292;28;1386;-67
2022/07/21 11:30:21;;;;;;;;;;;21.80;71.50;;;;;;5035360;28;1385;-67
2022/07/21 11:32:47;;;;;;;;;;;21.80;71.60;;;;;;5035457;28;1127;-67
2022/07/21 11:35:13;;;;;;;;;;;21.80;71.60;;;;;;5034085;28;831;-68
2022/07/21 11:37:39;;;;;;;;;;;21.80;71.50;;;;;;5035556;28;882;-66
2022/07/21 11:40:06;;;;;;;;;;;21.80;71.60;;;;;;5034311;28;1188;-65
2022/07/21 11:42:31;;;;;;;;;;;21.80;71.60;;;;;;5035033;28;1906;-67
2022/07/21 11:44:57;;;;;;;;;;;21.80;71.50;;;;;;5035083;28;772;-66
2022/07/21 11:47:26;;;;;;;;;;;21.80;71.50;;;;;;5030707;28;2135;-66
2022/07/21 11:49:52;;;;;;;;;;;21.80;71.50;;;;;;5035339;28;1564;-67
2022/07/21 11:52:17;;;;;;;;;;;21.80;71.60;;;;;;5031725;28;1282;-67
2022/07/21 11:54:44;;;;;;;;;;;21.80;71.50;;;;;;5034833;28;1573;-67
2022/07/21 11:57:09;;;;;;;;;;;21.80;71.60;;;;;;5035138;28;1592;-66
2022/07/21 11:59:36;;;;;;;;;;;21.80;71.60;;;;;;5034004;28;903;-67
2022/07/21 12:02:03;;;;;;;;;;;21.80;71.50;;;;;;5034797;28;1960;-67
2022/07/21 12:04:28;;;;;;;;;;;21.80;71.60;;;;;;5035567;28;795;-67
2022/07/21 12:06:53;;;;;;;;;;;21.80;71.50;;;;;;5035704;28;927;-67
2022/07/21 12:09:19;;;;;;;;;;;21.80;71.50;;;;;;5034620;28;1029;-67
2022/07/21 12:11:44;;;;;;;;;;;21.80;71.50;;;;;;5018958;28;1281;-67
2022/07/21 12:14:10;;;;;;;;;;;21.80;71.60;;;;;;5015586;28;867;-67
2022/07/21 12:16:55;;;;;;;;;;;21.80;71.50;;;;;;5015659;28;855;-67
2022/07/21 12:19:21;;;;;;;;;;;21.80;71.50;;;;;;5021403;28;1577;-67
2022/07/21 12:21:46;;;;;;;;;;;21.80;71.50;;;;;;5034022;28;1965;-67
2022/07/21 12:24:12;;;;;;;;;;;21.80;71.60;;;;;;5028897;28;1036;-67
2022/07/21 12:26:37;;;;;;;;;;;21.80;71.50;;;;;;5034959;28;1018;-67
2022/07/21 12:29:03;;;;;;;;;;;21.80;71.60;;;;;;5034896;28;1215;-67
2022/07/21 12:31:28;;;;;;;;;;;21.80;71.50;;;;;;5035079;28;1399;-67
2022/07/21 12:33:55;;;;;;;;;;;21.80;71.60;;;;;;5033696;28;1296;-67
2022/07/21 12:36:21;;;;;;;;;;;21.80;71.60;;;;;;5034261;28;815;-67
2022/07/21 12:38:47;;;;;;;;;;;21.80;71.60;;;;;;5035164;28;869;-66
2022/07/21 12:41:16;;;;;;;;;;;21.80;71.60;;;;;;5030447;28;1910;-67
2022/07/21 12:43:42;;;;;;;;;;;21.80;71.60;;;;;;5021932;28;1602;-67
2022/07/21 12:46:18;;;;;;;;;;;21.80;71.50;;;;;;5025556;28;1393;-66
2022/07/21 12:48:44;;;;;;;;;;;21.80;71.50;;;;;;5024681;28;1510;-66
2022/07/21 12:51:15;;;;;;;;;;;21.80;71.50;;;;;;5023873;28;1470;-66
2022/07/21 12:53:45;;;;;;;;;;;21.80;71.60;;;;;;5015829;28;1547;-68
2022/07/21 12:56:11;;;;;;;;;;;21.80;71.50;;;;;;5013800;28;796;-68
2022/07/21 12:58:37;;;;;;;;;;;21.80;71.50;;;;;;5013874;28;883;-68
2022/07/21 13:01:02;;;;;;;;;;;21.80;71.50;;;;;;5014860;28;1906;-68
2022/07/21 13:03:29;;;;;;;;;;;21.80;71.60;;;;;;5015010;28;824;-67
2022/07/21 13:05:54;;;;;;;;;;;21.80;71.60;;;;;;5014938;28;2255;-67
2022/07/21 13:08:20;;;;;;;;;;;21.80;71.50;;;;;;5030401;28;2286;-68
2022/07/21 13:10:45;;;;;;;;;;;21.80;71.60;;;;;;5034246;28;1335;-69
2022/07/21 13:13:10;;;;;;;;;;;21.80;71.60;;;;;;5029585;28;1652;-68
2022/07/21 13:15:36;;;;;;;;;;;21.90;71.60;;;;;;5033909;28;1110;-68
2022/07/21 13:18:01;;;;;;;;;;;21.80;71.60;;;;;;5034189;28;787;-68
2022/07/21 13:20:27;;;;;;;;;;;21.80;71.60;;;;;;5034094;28;1902;-69
2022/07/21 13:22:52;;;;;;;;;;;21.90;71.60;;;;;;5034170;28;796;-67
2022/07/21 13:25:18;;;;;;;;;;;21.80;71.60;;;;;;5033951;28;899;-67
2022/07/21 13:27:44;;;;;;;;;;;21.90;71.60;;;;;;5034047;28;970;-67
2022/07/21 13:30:09;;;;;;;;;;;21.80;71.60;;;;;;5034081;28;1287;-67
2022/07/21 13:32:36;;;;;;;;;;;21.80;71.60;;;;;;5034334;28;1307;-70
2022/07/21 13:35:02;;;;;;;;;;;21.80;71.60;;;;;;5032377;28;823;-72
2022/07/21 13:37:27;;;;;;;;;;;21.90;71.70;;;;;;5032632;28;1092;-69
2022/07/21 13:39:53;;;;;;;;;;;21.80;71.50;;;;;;5033364;28;788;-68
2022/07/21 13:42:18;;;;;;;;;;;21.80;71.60;;;;;;5033703;28;1981;-70
2022/07/21 13:44:44;;;;;;;;;;;21.80;71.60;;;;;;5032306;28;1034;-68
2022/07/21 13:47:09;;;;;;;;;;;21.80;71.60;;;;;;5018480;28;1239;-66
2022/07/21 13:49:35;;;;;;;;;;;21.80;71.60;;;;;;5013974;28;1180;-68
2022/07/21 13:52:00;;;;;;;;;;;21.80;71.60;;;;;;5013761;28;1228;-69
2022/07/21 13:54:26;;;;;;;;;;;21.80;71.60;;;;;;5013812;28;994;-66
2022/07/21 13:56:51;;;;;;;;;;;21.80;71.60;;;;;;5013806;28;1080;-68
2022/07/21 13:59:17;;;;;;;;;;;21.90;71.60;;;;;;5012589;28;1065;-68
2022/07/21 14:01:42;;;;;;;;;;;21.90;71.60;;;;;;5013466;28;1890;-67
2022/07/21 14:04:08;;;;;;;;;;;21.90;71.70;;;;;;5012099;28;1081;-67
2022/07/21 14:06:33;;;;;;;;;;;21.90;71.70;;;;;;5013523;28;1064;-68
2022/07/21 14:08:59;;;;;;;;;;;21.90;71.60;;;;;;5013727;28;998;-71
2022/07/21 14:11:27;;;;;;;;;;;21.80;71.60;;;;;;5013541;28;1201;-70
2022/07/21 14:13:53;;;;;;;;;;;21.90;71.70;;;;;;5013426;28;850;-70
2022/07/21 14:16:18;;;;;;;;;;;21.90;71.60;;;;;;5013342;28;828;-70
2022/07/21 14:18:43;;;;;;;;;;;21.90;71.70;;;;;;5014288;28;1135;-70
2022/07/21 14:21:09;;;;;;;;;;;21.90;71.70;;;;;;5032569;28;1902;-70
2022/07/21 14:23:34;;;;;;;;;;;21.90;71.60;;;;;;5033075;28;839;-69
2022/07/21 14:26:00;;;;;;;;;;;21.90;71.60;;;;;;5032814;28;1074;-68
2022/07/21 14:28:26;;;;;;;;;;;21.90;71.70;;;;;;5033151;28;827;-68
2022/07/21 14:30:51;;;;;;;;;;;21.90;71.70;;;;;;5032633;28;1212;-68
2022/07/21 14:33:17;;;;;;;;;;;21.90;71.70;;;;;;5032937;28;808;-67